sensor_id;sensor_type;location;lat;lon;timestamp;temperature;humidity
45104;DHT22;30865;51.288;4.572;2023-07-02T00:01:46;16.60;99.90
45104;DHT22;30865;51.288;4.572;2023-07-02T00:04:12;16.50;99.90
45104;DHT22;30865;51.288;4.572;2023-07-02T00:06:42;16.60;99.90
45104;DHT22;30865;51.288;4.572;2023-07-02T00:09:07;16.60;99.90
45104;DHT22;30865;51.288;4.572;2023-07-02T00:11:34;16.60;99.90
45104;DHT22;30865;51.288;4.572;2023-07-02T00:13:59;16.60;99.90
45104;DHT22;30865;51.288;4.572;2023-07-02T00:16:25;16.60;99.90
45104;DHT22;30865;51.288;4.572;2023-07-02T00:18:50;16.50;99.90
45104;DHT22;30865;51.288;4.572;2023-07-02T00:21:18;16.50;99.90
45104;DHT22;30865;51.288;4.572;2023-07-02T00:23:44;16.50;99.90
45104;DHT22;30865;51.288;4.572;2023-07-02T00:26:10;16.50;99.90
45104;DHT22;30865;51.288;4.572;2023-07-02T00:28:35;16.50;99.90
45104;DHT22;30865;51.288;4.572;2023-07-02T00:31:01;16.50;99.90
45104;DHT22;30865;51.288;4.572;2023-07-02T00:33:27;16.50;99.90
45104;DHT22;30865;51.288;4.572;2023-07-02T00:35:54;16.40;99.90
45104;DHT22;30865;51.288;4.572;2023-07-02T00:38:20;16.40;99.90
45104;DHT22;30865;51.288;4.572;2023-07-02T00:40:45;16.40;99.90
45104;DHT22;30865;51.288;4.572;2023-07-02T00:43:11;16.40;99.90
45104;DHT22;30865;51.288;4.572;2023-07-02T00:45:41;16.50;99.90
45104;DHT22;30865;51.288;4.572;2023-07-02T00:48:06;16.50;99.90
45104;DHT22;30865;51.288;4.572;2023-07-02T00:50:32;16.50;99.90
45104;DHT22;30865;51.288;4.572;2023-07-02T00:52:58;16.50;99.90
45104;DHT22;30865;51.288;4.572;2023-07-02T00:55:24;16.50;99.90
45104;DHT22;30865;51.288;4.572;2023-07-02T00:57:50;16.50;99.90
45104;DHT22;30865;51.288;4.572;2023-07-02T01:00:16;16.50;99.90
45104;DHT22;30865;51.288;4.572;2023-07-02T01:02:42;16.50;99.90
45104;DHT22;30865;51.288;4.572;2023-07-02T01:05:16;16.40;99.90
45104;DHT22;30865;51.288;4.572;2023-07-02T01:07:42;16.50;99.90
45104;DHT22;30865;51.288;4.572;2023-07-02T01:10:07;16.50;99.90
45104;DHT22;30865;51.288;4.572;2023-07-02T01:12:35;16.50;99.90
45104;DHT22;30865;51.288;4.572;2023-07-02T01:15:02;16.50;99.90
45104;DHT22;30865;51.288;4.572;2023-07-02T01:17:31;16.40;99.90
45104;DHT22;30865;51.288;4.572;2023-07-02T01:20:10;16.50;99.90
45104;DHT22;30865;51.288;4.572;2023-07-02T01:22:36;16.50;99.90
45104;DHT22;30865;51.288;4.572;2023-07-02T01:25:02;16.50;99.90
45104;DHT22;30865;51.288;4.572;2023-07-02T01:27:29;16.50;99.90
45104;DHT22;30865;51.288;4.572;2023-07-02T01:29:55;16.50;99.90
45104;DHT22;30865;51.288;4.572;2023-07-02T01:32:21;16.50;99.90
45104;DHT22;30865;51.288;4.572;2023-07-02T01:34:47;16.40;99.90
45104;DHT22;30865;51.288;4.572;2023-07-02T01:37:18;16.40;99.90
45104;DHT22;30865;51.288;4.572;2023-07-02T01:39:45;16.40;99.90
45104;DHT22;30865;51.288;4.572;2023-07-02T01:42:15;16.40;99.90
45104;DHT22;30865;51.288;4.572;2023-07-02T01:44:41;16.30;99.90
45104;DHT22;30865;51.288;4.572;2023-07-02T01:47:07;16.20;99.90
45104;DHT22;30865;51.288;4.572;2023-07-02T01:49:32;16.10;99.90
45104;DHT22;30865;51.288;4.572;2023-07-02T01:51:58;16.10;99.90
45104;DHT22;30865;51.288;4.572;2023-07-02T01:54:28;16.10;99.90
45104;DHT22;30865;51.288;4.572;2023-07-02T01:56:56;16.10;99.90
45104;DHT22;30865;51.288;4.572;2023-07-02T01:59:22;16.10;99.90
45104;DHT22;30865;51.288;4.572;2023-07-02T02:01:48;16.10;99.90
45104;DHT22;30865;51.288;4.572;2023-07-02T02:04:14;16.10;99.90
45104;DHT22;30865;51.288;4.572;2023-07-02T02:06:40;16.20;99.90
45104;DHT22;30865;51.288;4.572;2023-07-02T02:09:06;16.30;99.90
45104;DHT22;30865;51.288;4.572;2023-07-02T02:11:33;16.20;99.90
45104;DHT22;30865;51.288;4.572;2023-07-02T02:13:59;16.20;99.90
45104;DHT22;30865;51.288;4.572;2023-07-02T02:16:28;16.20;99.90
45104;DHT22;30865;51.288;4.572;2023-07-02T02:18:54;16.20;99.90
45104;DHT22;30865;51.288;4.572;2023-07-02T02:21:20;16.30;99.90
45104;DHT22;30865;51.288;4.572;2023-07-02T02:23:46;16.30;99.90
45104;DHT22;30865;51.288;4.572;2023-07-02T02:26:12;16.30;99.90
45104;DHT22;30865;51.288;4.572;2023-07-02T02:28:37;16.30;99.90
45104;DHT22;30865;51.288;4.572;2023-07-02T02:31:03;16.30;99.90
45104;DHT22;30865;51.288;4.572;2023-07-02T02:33:29;16.40;99.90
45104;DHT22;30865;51.288;4.572;2023-07-02T02:35:55;16.40;99.90
45104;DHT22;30865;51.288;4.572;2023-07-02T02:38:20;16.40;99.90
45104;DHT22;30865;51.288;4.572;2023-07-02T02:40:46;16.30;99.90
45104;DHT22;30865;51.288;4.572;2023-07-02T02:43:11;16.40;99.90
45104;DHT22;30865;51.288;4.572;2023-07-02T02:45:37;16.40;99.90
45104;DHT22;30865;51.288;4.572;2023-07-02T02:48:03;16.20;99.90
45104;DHT22;30865;51.288;4.572;2023-07-02T02:50:29;16.30;99.90
45104;DHT22;30865;51.288;4.572;2023-07-02T02:52:54;16.30;99.90
45104;DHT22;30865;51.288;4.572;2023-07-02T02:55:20;16.30;99.90
45104;DHT22;30865;51.288;4.572;2023-07-02T02:57:45;16.30;99.90
45104;DHT22;30865;51.288;4.572;2023-07-02T03:00:11;16.40;99.90
45104;DHT22;30865;51.288;4.572;2023-07-02T03:02:37;16.40;99.90
45104;DHT22;30865;51.288;4.572;2023-07-02T03:05:04;16.50;99.90
45104;DHT22;30865;51.288;4.572;2023-07-02T03:07:31;16.50;99.90
45104;DHT22;30865;51.288;4.572;2023-07-02T03:09:57;16.60;99.90
45104;DHT22;30865;51.288;4.572;2023-07-02T03:12:22;16.60;99.90
45104;DHT22;30865;51.288;4.572;2023-07-02T03:14:48;16.70;99.90
45104;DHT22;30865;51.288;4.572;2023-07-02T03:17:18;16.60;99.90
45104;DHT22;30865;51.288;4.572;2023-07-02T03:19:44;16.70;99.90
45104;DHT22;30865;51.288;4.572;2023-07-02T03:22:10;16.80;99.90
45104;DHT22;30865;51.288;4.572;2023-07-02T03:24:35;16.80;99.90
45104;DHT22;30865;51.288;4.572;2023-07-02T03:27:00;16.70;99.90
45104;DHT22;30865;51.288;4.572;2023-07-02T03:29:26;16.70;99.90
45104;DHT22;30865;51.288;4.572;2023-07-02T03:31:52;16.60;99.90
45104;DHT22;30865;51.288;4.572;2023-07-02T03:34:17;16.60;99.90
45104;DHT22;30865;51.288;4.572;2023-07-02T03:36:43;16.30;99.90
45104;DHT22;30865;51.288;4.572;2023-07-02T03:39:09;16.10;99.90
45104;DHT22;30865;51.288;4.572;2023-07-02T03:41:35;16.00;99.90
45104;DHT22;30865;51.288;4.572;2023-07-02T03:44:00;15.90;99.90
45104;DHT22;30865;51.288;4.572;2023-07-02T03:46:26;15.90;99.90
45104;DHT22;30865;51.288;4.572;2023-07-02T03:48:51;15.80;99.90
45104;DHT22;30865;51.288;4.572;2023-07-02T03:51:17;15.80;99.90
45104;DHT22;30865;51.288;4.572;2023-07-02T03:53:44;15.70;99.90
45104;DHT22;30865;51.288;4.572;2023-07-02T03:56:09;15.70;99.90
45104;DHT22;30865;51.288;4.572;2023-07-02T03:58:35;15.60;99.90
45104;DHT22;30865;51.288;4.572;2023-07-02T04:01:03;15.70;99.90
45104;DHT22;30865;51.288;4.572;2023-07-02T04:03:28;15.60;99.90
45104;DHT22;30865;51.288;4.572;2023-07-02T04:05:54;15.60;99.90
45104;DHT22;30865;51.288;4.572;2023-07-02T04:08:19;15.60;99.90
45104;DHT22;30865;51.288;4.572;2023-07-02T04:10:46;15.70;99.90
45104;DHT22;30865;51.288;4.572;2023-07-02T04:13:12;15.70;99.90
45104;DHT22;30865;51.288;4.572;2023-07-02T04:15:37;15.60;99.90
45104;DHT22;30865;51.288;4.572;2023-07-02T04:18:03;15.70;99.90
45104;DHT22;30865;51.288;4.572;2023-07-02T04:20:31;15.70;99.90
45104;DHT22;30865;51.288;4.572;2023-07-02T04:22:58;15.60;99.90
45104;DHT22;30865;51.288;4.572;2023-07-02T04:25:24;15.70;99.90
45104;DHT22;30865;51.288;4.572;2023-07-02T04:27:50;15.70;99.90
45104;DHT22;30865;51.288;4.572;2023-07-02T04:30:16;15.70;99.90
45104;DHT22;30865;51.288;4.572;2023-07-02T04:32:41;15.70;99.90
45104;DHT22;30865;51.288;4.572;2023-07-02T04:35:08;15.80;99.90
45104;DHT22;30865;51.288;4.572;2023-07-02T04:37:34;15.70;99.90
45104;DHT22;30865;51.288;4.572;2023-07-02T04:40:00;15.70;99.90
45104;DHT22;30865;51.288;4.572;2023-07-02T04:42:26;15.60;99.90
45104;DHT22;30865;51.288;4.572;2023-07-02T04:44:53;15.70;99.90
45104;DHT22;30865;51.288;4.572;2023-07-02T04:47:19;15.60;99.90
45104;DHT22;30865;51.288;4.572;2023-07-02T04:49:45;15.60;99.90
45104;DHT22;30865;51.288;4.572;2023-07-02T04:52:10;15.50;99.90
45104;DHT22;30865;51.288;4.572;2023-07-02T04:54:36;15.50;99.90
45104;DHT22;30865;51.288;4.572;2023-07-02T04:57:02;15.60;99.90
45104;DHT22;30865;51.288;4.572;2023-07-02T04:59:27;15.50;99.90
45104;DHT22;30865;51.288;4.572;2023-07-02T05:01:53;15.50;99.90
45104;DHT22;30865;51.288;4.572;2023-07-02T05:04:18;15.60;99.90
45104;DHT22;30865;51.288;4.572;2023-07-02T05:06:44;15.60;99.90
45104;DHT22;30865;51.288;4.572;2023-07-02T05:09:09;15.70;99.90
45104;DHT22;30865;51.288;4.572;2023-07-02T05:11:35;15.70;99.90
45104;DHT22;30865;51.288;4.572;2023-07-02T05:14:00;15.80;99.90
45104;DHT22;30865;51.288;4.572;2023-07-02T05:16:26;15.90;99.90
45104;DHT22;30865;51.288;4.572;2023-07-02T05:18:51;16.00;99.90
45104;DHT22;30865;51.288;4.572;2023-07-02T05:21:20;16.00;99.90
45104;DHT22;30865;51.288;4.572;2023-07-02T05:23:47;16.10;99.90
45104;DHT22;30865;51.288;4.572;2023-07-02T05:26:13;16.10;99.90
45104;DHT22;30865;51.288;4.572;2023-07-02T05:28:39;16.10;99.90
45104;DHT22;30865;51.288;4.572;2023-07-02T05:31:04;16.20;99.90
45104;DHT22;30865;51.288;4.572;2023-07-02T05:33:30;16.20;99.90
45104;DHT22;30865;51.288;4.572;2023-07-02T05:35:57;16.20;99.90
45104;DHT22;30865;51.288;4.572;2023-07-02T05:38:23;16.20;99.90
45104;DHT22;30865;51.288;4.572;2023-07-02T05:40:49;16.30;99.90
45104;DHT22;30865;51.288;4.572;2023-07-02T05:43:15;16.30;99.90
45104;DHT22;30865;51.288;4.572;2023-07-02T05:45:40;16.30;99.90
45104;DHT22;30865;51.288;4.572;2023-07-02T05:48:06;16.30;99.90
45104;DHT22;30865;51.288;4.572;2023-07-02T05:50:31;16.20;99.90
45104;DHT22;30865;51.288;4.572;2023-07-02T05:52:57;16.20;99.90
45104;DHT22;30865;51.288;4.572;2023-07-02T05:55:22;16.10;99.90
45104;DHT22;30865;51.288;4.572;2023-07-02T05:57:48;16.10;99.90
45104;DHT22;30865;51.288;4.572;2023-07-02T06:00:14;16.30;99.90
45104;DHT22;30865;51.288;4.572;2023-07-02T06:02:40;16.50;99.90
45104;DHT22;30865;51.288;4.572;2023-07-02T06:05:06;16.60;99.90
45104;DHT22;30865;51.288;4.572;2023-07-02T06:07:31;16.70;99.90
45104;DHT22;30865;51.288;4.572;2023-07-02T06:09:57;16.70;99.90
45104;DHT22;30865;51.288;4.572;2023-07-02T06:12:22;16.90;99.90
45104;DHT22;30865;51.288;4.572;2023-07-02T06:14:48;17.00;99.90
45104;DHT22;30865;51.288;4.572;2023-07-02T06:17:14;17.10;99.90
45104;DHT22;30865;51.288;4.572;2023-07-02T06:19:40;17.10;99.90
45104;DHT22;30865;51.288;4.572;2023-07-02T06:22:06;17.10;99.90
45104;DHT22;30865;51.288;4.572;2023-07-02T06:24:32;17.20;99.90
45104;DHT22;30865;51.288;4.572;2023-07-02T06:26:57;17.30;99.90
45104;DHT22;30865;51.288;4.572;2023-07-02T06:29:23;17.50;99.90
45104;DHT22;30865;51.288;4.572;2023-07-02T06:31:49;17.60;99.90
45104;DHT22;30865;51.288;4.572;2023-07-02T06:34:15;17.70;99.90
45104;DHT22;30865;51.288;4.572;2023-07-02T06:36:41;17.60;99.90
45104;DHT22;30865;51.288;4.572;2023-07-02T06:39:06;17.50;99.90
45104;DHT22;30865;51.288;4.572;2023-07-02T06:41:33;17.40;99.90
45104;DHT22;30865;51.288;4.572;2023-07-02T06:43:58;17.30;99.90
45104;DHT22;30865;51.288;4.572;2023-07-02T06:46:24;17.40;99.90
45104;DHT22;30865;51.288;4.572;2023-07-02T06:48:49;17.60;99.90
45104;DHT22;30865;51.288;4.572;2023-07-02T06:51:15;17.60;99.90
45104;DHT22;30865;51.288;4.572;2023-07-02T06:53:41;17.40;99.90
45104;DHT22;30865;51.288;4.572;2023-07-02T06:56:10;17.40;99.90
45104;DHT22;30865;51.288;4.572;2023-07-02T06:58:36;17.40;99.90
45104;DHT22;30865;51.288;4.572;2023-07-02T07:01:01;17.40;99.90
45104;DHT22;30865;51.288;4.572;2023-07-02T07:03:27;17.30;99.90
45104;DHT22;30865;51.288;4.572;2023-07-02T07:05:53;17.40;99.90
45104;DHT22;30865;51.288;4.572;2023-07-02T07:08:18;17.40;99.90
45104;DHT22;30865;51.288;4.572;2023-07-02T07:10:44;17.40;99.90
45104;DHT22;30865;51.288;4.572;2023-07-02T07:13:11;17.40;99.90
45104;DHT22;30865;51.288;4.572;2023-07-02T07:15:36;17.60;99.90
45104;DHT22;30865;51.288;4.572;2023-07-02T07:18:02;17.50;99.90
45104;DHT22;30865;51.288;4.572;2023-07-02T07:20:29;17.60;99.90
45104;DHT22;30865;51.288;4.572;2023-07-02T07:22:55;17.70;99.90
45104;DHT22;30865;51.288;4.572;2023-07-02T07:25:20;17.70;99.90
45104;DHT22;30865;51.288;4.572;2023-07-02T07:27:46;17.70;99.90
45104;DHT22;30865;51.288;4.572;2023-07-02T07:30:12;17.70;99.90
45104;DHT22;30865;51.288;4.572;2023-07-02T07:32:38;17.80;99.90
45104;DHT22;30865;51.288;4.572;2023-07-02T07:35:04;17.80;99.90
45104;DHT22;30865;51.288;4.572;2023-07-02T07:37:39;17.90;99.90
45104;DHT22;30865;51.288;4.572;2023-07-02T07:40:05;17.80;99.90
45104;DHT22;30865;51.288;4.572;2023-07-02T07:42:31;17.90;99.90
45104;DHT22;30865;51.288;4.572;2023-07-02T07:44:56;18.10;99.90
45104;DHT22;30865;51.288;4.572;2023-07-02T07:47:22;18.10;99.90
45104;DHT22;30865;51.288;4.572;2023-07-02T07:49:47;18.20;99.90
45104;DHT22;30865;51.288;4.572;2023-07-02T07:52:13;18.20;99.90
45104;DHT22;30865;51.288;4.572;2023-07-02T07:54:38;18.00;99.90
45104;DHT22;30865;51.288;4.572;2023-07-02T07:57:04;18.00;99.90
45104;DHT22;30865;51.288;4.572;2023-07-02T07:59:30;18.20;99.90
45104;DHT22;30865;51.288;4.572;2023-07-02T08:01:56;18.20;99.90
45104;DHT22;30865;51.288;4.572;2023-07-02T08:04:21;18.20;99.90
45104;DHT22;30865;51.288;4.572;2023-07-02T08:06:47;18.30;99.90
45104;DHT22;30865;51.288;4.572;2023-07-02T08:09:12;18.30;99.90
45104;DHT22;30865;51.288;4.572;2023-07-02T08:11:38;18.20;99.90
45104;DHT22;30865;51.288;4.572;2023-07-02T08:14:08;18.10;99.90
45104;DHT22;30865;51.288;4.572;2023-07-02T08:16:34;18.30;99.90
45104;DHT22;30865;51.288;4.572;2023-07-02T08:19:00;18.50;99.90
45104;DHT22;30865;51.288;4.572;2023-07-02T08:21:26;18.40;99.90
45104;DHT22;30865;51.288;4.572;2023-07-02T08:23:51;18.30;99.90
45104;DHT22;30865;51.288;4.572;2023-07-02T08:26:17;18.50;99.90
45104;DHT22;30865;51.288;4.572;2023-07-02T08:28:42;18.60;99.90
45104;DHT22;30865;51.288;4.572;2023-07-02T08:31:08;18.60;99.90
45104;DHT22;30865;51.288;4.572;2023-07-02T08:33:33;18.50;99.90
45104;DHT22;30865;51.288;4.572;2023-07-02T08:35:59;18.50;99.90
45104;DHT22;30865;51.288;4.572;2023-07-02T08:38:26;18.70;99.90
45104;DHT22;30865;51.288;4.572;2023-07-02T08:40:51;18.60;99.90
45104;DHT22;30865;51.288;4.572;2023-07-02T08:43:17;18.60;99.90
45104;DHT22;30865;51.288;4.572;2023-07-02T08:45:43;18.50;99.90
45104;DHT22;30865;51.288;4.572;2023-07-02T08:48:10;18.60;99.90
45104;DHT22;30865;51.288;4.572;2023-07-02T08:50:38;18.60;99.90
45104;DHT22;30865;51.288;4.572;2023-07-02T08:53:04;18.60;99.90
45104;DHT22;30865;51.288;4.572;2023-07-02T08:55:29;19.00;99.90
45104;DHT22;30865;51.288;4.572;2023-07-02T08:57:56;19.10;99.90
45104;DHT22;30865;51.288;4.572;2023-07-02T09:00:26;19.00;99.90
45104;DHT22;30865;51.288;4.572;2023-07-02T09:02:51;19.00;99.90
45104;DHT22;30865;51.288;4.572;2023-07-02T09:05:17;19.00;99.90
45104;DHT22;30865;51.288;4.572;2023-07-02T09:07:47;19.30;99.90
45104;DHT22;30865;51.288;4.572;2023-07-02T09:10:25;19.70;99.90
45104;DHT22;30865;51.288;4.572;2023-07-02T09:12:51;19.90;99.90
45104;DHT22;30865;51.288;4.572;2023-07-02T09:15:27;20.10;99.90
45104;DHT22;30865;51.288;4.572;2023-07-02T09:17:59;20.20;99.90
45104;DHT22;30865;51.288;4.572;2023-07-02T09:20:32;20.30;99.10
45104;DHT22;30865;51.288;4.572;2023-07-02T09:22:58;20.70;99.90
45104;DHT22;30865;51.288;4.572;2023-07-02T09:25:34;20.90;97.30
45104;DHT22;30865;51.288;4.572;2023-07-02T09:27:59;21.00;93.50
45104;DHT22;30865;51.288;4.572;2023-07-02T09:30:25;20.90;94.20
45104;DHT22;30865;51.288;4.572;2023-07-02T09:32:50;20.90;93.40
45104;DHT22;30865;51.288;4.572;2023-07-02T09:35:16;20.80;92.80
45104;DHT22;30865;51.288;4.572;2023-07-02T09:37:45;20.90;92.20
45104;DHT22;30865;51.288;4.572;2023-07-02T09:40:11;21.10;91.40
45104;DHT22;30865;51.288;4.572;2023-07-02T09:42:39;21.40;96.10
45104;DHT22;30865;51.288;4.572;2023-07-02T09:45:08;21.70;92.70
45104;DHT22;30865;51.288;4.572;2023-07-02T09:47:35;21.80;90.00
45104;DHT22;30865;51.288;4.572;2023-07-02T09:50:04;21.90;91.10
45104;DHT22;30865;51.288;4.572;2023-07-02T09:52:34;21.90;91.50
45104;DHT22;30865;51.288;4.572;2023-07-02T09:55:00;22.10;90.40
45104;DHT22;30865;51.288;4.572;2023-07-02T09:57:26;22.50;88.70
45104;DHT22;30865;51.288;4.572;2023-07-02T09:59:53;22.50;88.10
45104;DHT22;30865;51.288;4.572;2023-07-02T10:02:19;22.90;82.10
45104;DHT22;30865;51.288;4.572;2023-07-02T10:04:47;22.90;81.60
45104;DHT22;30865;51.288;4.572;2023-07-02T10:07:30;22.70;79.00
45104;DHT22;30865;51.288;4.572;2023-07-02T10:09:56;22.70;80.70
45104;DHT22;30865;51.288;4.572;2023-07-02T10:12:27;22.30;78.80
45104;DHT22;30865;51.288;4.572;2023-07-02T10:14:54;22.20;84.50
45104;DHT22;30865;51.288;4.572;2023-07-02T10:17:28;22.50;83.00
45104;DHT22;30865;51.288;4.572;2023-07-02T10:19:55;23.10;79.10
45104;DHT22;30865;51.288;4.572;2023-07-02T10:22:21;23.00;76.70
45104;DHT22;30865;51.288;4.572;2023-07-02T10:25:26;23.10;75.20
45104;DHT22;30865;51.288;4.572;2023-07-02T10:27:52;22.90;77.30
45104;DHT22;30865;51.288;4.572;2023-07-02T10:30:17;23.40;79.10
45104;DHT22;30865;51.288;4.572;2023-07-02T10:32:43;23.40;75.70
45104;DHT22;30865;51.288;4.572;2023-07-02T10:35:15;23.00;74.20
45104;DHT22;30865;51.288;4.572;2023-07-02T10:37:41;23.40;72.10
45104;DHT22;30865;51.288;4.572;2023-07-02T10:40:07;23.60;68.50
45104;DHT22;30865;51.288;4.572;2023-07-02T10:42:33;23.40;67.70
45104;DHT22;30865;51.288;4.572;2023-07-02T10:44:59;23.90;67.50
45104;DHT22;30865;51.288;4.572;2023-07-02T10:47:25;24.00;68.80
45104;DHT22;30865;51.288;4.572;2023-07-02T10:49:50;24.10;68.60
45104;DHT22;30865;51.288;4.572;2023-07-02T10:52:16;23.70;69.50
45104;DHT22;30865;51.288;4.572;2023-07-02T10:54:45;24.10;68.40
45104;DHT22;30865;51.288;4.572;2023-07-02T10:57:14;24.20;66.00
45104;DHT22;30865;51.288;4.572;2023-07-02T10:59:41;24.40;63.60
45104;DHT22;30865;51.288;4.572;2023-07-02T11:02:08;24.20;65.90
45104;DHT22;30865;51.288;4.572;2023-07-02T11:04:35;24.10;63.90
45104;DHT22;30865;51.288;4.572;2023-07-02T11:07:01;24.10;65.50
45104;DHT22;30865;51.288;4.572;2023-07-02T11:09:27;24.50;65.50
45104;DHT22;30865;51.288;4.572;2023-07-02T11:11:55;24.40;61.00
45104;DHT22;30865;51.288;4.572;2023-07-02T11:14:32;24.30;62.10
45104;DHT22;30865;51.288;4.572;2023-07-02T11:16:59;24.60;61.20
45104;DHT22;30865;51.288;4.572;2023-07-02T11:19:24;24.40;58.60
45104;DHT22;30865;51.288;4.572;2023-07-02T11:21:55;24.10;59.40
45104;DHT22;30865;51.288;4.572;2023-07-02T11:24:34;24.20;61.10
45104;DHT22;30865;51.288;4.572;2023-07-02T11:27:01;24.90;59.70
45104;DHT22;30865;51.288;4.572;2023-07-02T11:29:29;24.70;58.60
45104;DHT22;30865;51.288;4.572;2023-07-02T11:32:07;24.30;58.40
45104;DHT22;30865;51.288;4.572;2023-07-02T11:34:35;24.00;59.80
45104;DHT22;30865;51.288;4.572;2023-07-02T11:37:00;23.80;60.30
45104;DHT22;30865;51.288;4.572;2023-07-02T11:39:26;24.10;59.00
45104;DHT22;30865;51.288;4.572;2023-07-02T11:41:52;23.90;59.20
45104;DHT22;30865;51.288;4.572;2023-07-02T11:44:18;24.30;59.00
45104;DHT22;30865;51.288;4.572;2023-07-02T11:46:44;24.30;56.70
45104;DHT22;30865;51.288;4.572;2023-07-02T11:49:09;24.30;56.50
45104;DHT22;30865;51.288;4.572;2023-07-02T11:51:42;24.40;56.80
45104;DHT22;30865;51.288;4.572;2023-07-02T11:54:13;24.50;55.10
45104;DHT22;30865;51.288;4.572;2023-07-02T11:56:39;24.70;54.50
45104;DHT22;30865;51.288;4.572;2023-07-02T11:59:07;25.10;51.40
45104;DHT22;30865;51.288;4.572;2023-07-02T12:01:32;24.90;51.50
45104;DHT22;30865;51.288;4.572;2023-07-02T12:03:58;25.60;52.40
45104;DHT22;30865;51.288;4.572;2023-07-02T12:06:24;25.80;52.30
45104;DHT22;30865;51.288;4.572;2023-07-02T12:08:49;25.70;52.70
45104;DHT22;30865;51.288;4.572;2023-07-02T12:11:14;25.80;51.90
45104;DHT22;30865;51.288;4.572;2023-07-02T12:13:41;25.50;51.00
45104;DHT22;30865;51.288;4.572;2023-07-02T12:16:06;25.50;51.00
45104;DHT22;30865;51.288;4.572;2023-07-02T12:18:32;25.20;51.90
45104;DHT22;30865;51.288;4.572;2023-07-02T12:20:57;25.40;50.20
45104;DHT22;30865;51.288;4.572;2023-07-02T12:23:23;25.50;50.10
45104;DHT22;30865;51.288;4.572;2023-07-02T12:25:48;25.70;49.50
45104;DHT22;30865;51.288;4.572;2023-07-02T12:28:14;26.10;48.30
45104;DHT22;30865;51.288;4.572;2023-07-02T12:30:40;26.00;47.90
45104;DHT22;30865;51.288;4.572;2023-07-02T12:33:05;25.70;47.60
45104;DHT22;30865;51.288;4.572;2023-07-02T12:35:31;25.70;47.20
45104;DHT22;30865;51.288;4.572;2023-07-02T12:37:56;25.40;47.70
45104;DHT22;30865;51.288;4.572;2023-07-02T12:40:22;25.40;47.70
45104;DHT22;30865;51.288;4.572;2023-07-02T12:42:48;24.90;48.20
45104;DHT22;30865;51.288;4.572;2023-07-02T12:45:15;25.20;48.30
45104;DHT22;30865;51.288;4.572;2023-07-02T12:47:41;25.40;48.30
45104;DHT22;30865;51.288;4.572;2023-07-02T12:50:08;25.80;47.70
45104;DHT22;30865;51.288;4.572;2023-07-02T12:52:34;26.00;47.90
45104;DHT22;30865;51.288;4.572;2023-07-02T12:55:00;25.60;47.10
45104;DHT22;30865;51.288;4.572;2023-07-02T12:57:26;25.80;46.60
45104;DHT22;30865;51.288;4.572;2023-07-02T12:59:55;26.10;45.50
45104;DHT22;30865;51.288;4.572;2023-07-02T13:02:22;25.90;45.80
45104;DHT22;30865;51.288;4.572;2023-07-02T13:04:48;26.10;45.30
45104;DHT22;30865;51.288;4.572;2023-07-02T13:07:13;26.90;44.10
45104;DHT22;30865;51.288;4.572;2023-07-02T13:09:39;26.70;43.80
45104;DHT22;30865;51.288;4.572;2023-07-02T13:12:05;26.10;44.40
45104;DHT22;30865;51.288;4.572;2023-07-02T13:14:30;26.20;45.20
45104;DHT22;30865;51.288;4.572;2023-07-02T13:16:56;26.30;44.70
45104;DHT22;30865;51.288;4.572;2023-07-02T13:19:24;26.30;44.00
45104;DHT22;30865;51.288;4.572;2023-07-02T13:21:49;26.40;44.70
45104;DHT22;30865;51.288;4.572;2023-07-02T13:24:15;26.30;43.80
45104;DHT22;30865;51.288;4.572;2023-07-02T13:26:40;26.80;43.80
45104;DHT22;30865;51.288;4.572;2023-07-02T13:29:06;26.80;43.60
45104;DHT22;30865;51.288;4.572;2023-07-02T13:31:32;27.00;42.80
45104;DHT22;30865;51.288;4.572;2023-07-02T13:33:57;26.50;42.60
45104;DHT22;30865;51.288;4.572;2023-07-02T13:36:23;26.10;42.20
45104;DHT22;30865;51.288;4.572;2023-07-02T13:38:49;26.70;42.60
45104;DHT22;30865;51.288;4.572;2023-07-02T13:41:14;26.90;42.60
45104;DHT22;30865;51.288;4.572;2023-07-02T13:43:40;26.70;41.70
45104;DHT22;30865;51.288;4.572;2023-07-02T13:46:05;26.60;41.60
45104;DHT22;30865;51.288;4.572;2023-07-02T13:48:31;26.80;41.10
45104;DHT22;30865;51.288;4.572;2023-07-02T13:50:56;27.40;41.20
45104;DHT22;30865;51.288;4.572;2023-07-02T13:53:22;27.60;40.50
45104;DHT22;30865;51.288;4.572;2023-07-02T13:55:48;27.60;41.00
45104;DHT22;30865;51.288;4.572;2023-07-02T13:58:13;27.50;40.30
45104;DHT22;30865;51.288;4.572;2023-07-02T14:00:39;27.70;40.60
45104;DHT22;30865;51.288;4.572;2023-07-02T14:03:05;28.00;39.50
45104;DHT22;30865;51.288;4.572;2023-07-02T14:05:31;27.90;39.60
45104;DHT22;30865;51.288;4.572;2023-07-02T14:07:57;27.70;39.30
45104;DHT22;30865;51.288;4.572;2023-07-02T14:10:22;28.00;39.40
45104;DHT22;30865;51.288;4.572;2023-07-02T14:12:48;28.50;38.20
45104;DHT22;30865;51.288;4.572;2023-07-02T14:15:13;28.80;37.70
45104;DHT22;30865;51.288;4.572;2023-07-02T14:17:39;29.10;37.30
45104;DHT22;30865;51.288;4.572;2023-07-02T14:20:07;28.90;37.10
45104;DHT22;30865;51.288;4.572;2023-07-02T14:22:32;29.40;37.90
45104;DHT22;30865;51.288;4.572;2023-07-02T14:24:58;28.80;37.50
45104;DHT22;30865;51.288;4.572;2023-07-02T14:27:24;29.30;37.20
45104;DHT22;30865;51.288;4.572;2023-07-02T14:29:49;29.60;36.30
45104;DHT22;30865;51.288;4.572;2023-07-02T14:32:15;28.00;37.90
45104;DHT22;30865;51.288;4.572;2023-07-02T14:34:41;29.00;37.50
45104;DHT22;30865;51.288;4.572;2023-07-02T14:37:07;29.40;36.10
45104;DHT22;30865;51.288;4.572;2023-07-02T14:39:33;30.10;35.60
45104;DHT22;30865;51.288;4.572;2023-07-02T14:41:58;30.50;35.70
45104;DHT22;30865;51.288;4.572;2023-07-02T14:44:24;30.50;35.00
45104;DHT22;30865;51.288;4.572;2023-07-02T14:46:50;31.30;34.30
45104;DHT22;30865;51.288;4.572;2023-07-02T14:49:16;31.20;34.20
45104;DHT22;30865;51.288;4.572;2023-07-02T14:51:41;30.70;34.20
45104;DHT22;30865;51.288;4.572;2023-07-02T14:54:07;30.20;33.80
45104;DHT22;30865;51.288;4.572;2023-07-02T14:56:34;30.70;34.80
45104;DHT22;30865;51.288;4.572;2023-07-02T14:59:02;30.30;34.30
45104;DHT22;30865;51.288;4.572;2023-07-02T15:01:28;29.90;34.90
45104;DHT22;30865;51.288;4.572;2023-07-02T15:03:54;30.50;34.50
45104;DHT22;30865;51.288;4.572;2023-07-02T15:06:20;29.10;35.30
45104;DHT22;30865;51.288;4.572;2023-07-02T15:08:46;28.60;36.80
45104;DHT22;30865;51.288;4.572;2023-07-02T15:11:15;27.90;38.40
45104;DHT22;30865;51.288;4.572;2023-07-02T15:13:41;27.90;37.70
45104;DHT22;30865;51.288;4.572;2023-07-02T15:16:08;27.40;38.80
45104;DHT22;30865;51.288;4.572;2023-07-02T15:18:34;28.50;37.70
45104;DHT22;30865;51.288;4.572;2023-07-02T15:21:00;29.50;36.40
45104;DHT22;30865;51.288;4.572;2023-07-02T15:23:27;30.20;35.30
45104;DHT22;30865;51.288;4.572;2023-07-02T15:25:55;30.80;34.50